sensor_id;sensor_type;location;lat;lon;timestamp;P1;durP1;ratioP1;P2;durP2;ratioP2
2650;SDS011;1335;48.180;16.342;2022-08-19T00:01:45;4.63;;;3.20;;
2650;SDS011;1335;48.180;16.342;2022-08-19T00:04:16;4.37;;;3.33;;
2650;SDS011;1335;48.180;16.342;2022-08-19T00:06:44;5.57;;;3.30;;
2650;SDS011;1335;48.180;16.342;2022-08-19T00:09:12;6.33;;;3.93;;
2650;SDS011;1335;48.180;16.342;2022-08-19T00:11:41;6.30;;;3.60;;
2650;SDS011;1335;48.180;16.342;2022-08-19T00:14:10;6.80;;;3.63;;
2650;SDS011;1335;48.180;16.342;2022-08-19T00:16:38;4.43;;;3.43;;
2650;SDS011;1335;48.180;16.342;2022-08-19T00:19:07;5.57;;;3.60;;
2650;SDS011;1335;48.180;16.342;2022-08-19T00:21:36;7.67;;;3.70;;
2650;SDS011;1335;48.180;16.342;2022-08-19T00:24:05;4.80;;;4.30;;
2650;SDS011;1335;48.180;16.342;2022-08-19T00:26:34;5.97;;;4.20;;
2650;SDS011;1335;48.180;16.342;2022-08-19T00:29:02;6.80;;;3.77;;
2650;SDS011;1335;48.180;16.342;2022-08-19T00:31:32;7.03;;;3.70;;
2650;SDS011;1335;48.180;16.342;2022-08-19T00:34:00;5.07;;;3.93;;
2650;SDS011;1335;48.180;16.342;2022-08-19T00:36:27;4.67;;;3.40;;
2650;SDS011;1335;48.180;16.342;2022-08-19T00:38:56;6.20;;;3.83;;
2650;SDS011;1335;48.180;16.342;2022-08-19T00:41:23;5.30;;;3.70;;
2650;SDS011;1335;48.180;16.342;2022-08-19T00:44:01;7.63;;;3.30;;
2650;SDS011;1335;48.180;16.342;2022-08-19T00:46:30;6.43;;;3.00;;
2650;SDS011;1335;48.180;16.342;2022-08-19T00:49:01;8.17;;;3.80;;
2650;SDS011;1335;48.180;16.342;2022-08-19T00:51:32;6.80;;;4.00;;
2650;SDS011;1335;48.180;16.342;2022-08-19T00:54:02;6.10;;;3.23;;
2650;SDS011;1335;48.180;16.342;2022-08-19T00:56:30;4.57;;;3.27;;
2650;SDS011;1335;48.180;16.342;2022-08-19T00:58:57;5.10;;;2.70;;
2650;SDS011;1335;48.180;16.342;2022-08-19T01:01:26;3.63;;;2.80;;
2650;SDS011;1335;48.180;16.342;2022-08-19T01:03:53;6.83;;;2.90;;
2650;SDS011;1335;48.180;16.342;2022-08-19T01:06:20;5.20;;;3.00;;
2650;SDS011;1335;48.180;16.342;2022-08-19T01:08:48;4.40;;;2.80;;
2650;SDS011;1335;48.180;16.342;2022-08-19T01:11:17;6.80;;;3.40;;
2650;SDS011;1335;48.180;16.342;2022-08-19T01:13:44;5.83;;;3.17;;
2650;SDS011;1335;48.180;16.342;2022-08-19T01:16:12;6.87;;;3.33;;
2650;SDS011;1335;48.180;16.342;2022-08-19T01:18:41;5.20;;;3.80;;
2650;SDS011;1335;48.180;16.342;2022-08-19T01:21:10;5.57;;;3.63;;
2650;SDS011;1335;48.180;16.342;2022-08-19T01:23:43;6.33;;;3.80;;
2650;SDS011;1335;48.180;16.342;2022-08-19T01:26:12;3.80;;;3.10;;
2650;SDS011;1335;48.180;16.342;2022-08-19T01:28:41;8.20;;;3.67;;
2650;SDS011;1335;48.180;16.342;2022-08-19T01:31:10;7.70;;;3.37;;
2650;SDS011;1335;48.180;16.342;2022-08-19T01:33:40;10.27;;;3.73;;
2650;SDS011;1335;48.180;16.342;2022-08-19T01:36:08;11.40;;;3.17;;
2650;SDS011;1335;48.180;16.342;2022-08-19T01:38:38;5.47;;;3.03;;
2650;SDS011;1335;48.180;16.342;2022-08-19T01:41:09;5.90;;;3.13;;
2650;SDS011;1335;48.180;16.342;2022-08-19T01:43:37;5.90;;;3.80;;
2650;SDS011;1335;48.180;16.342;2022-08-19T01:46:04;6.83;;;3.20;;
2650;SDS011;1335;48.180;16.342;2022-08-19T01:48:35;4.97;;;2.90;;
2650;SDS011;1335;48.180;16.342;2022-08-19T01:51:04;11.27;;;3.40;;
2650;SDS011;1335;48.180;16.342;2022-08-19T01:53:31;5.80;;;3.20;;
2650;SDS011;1335;48.180;16.342;2022-08-19T01:55:59;4.70;;;3.40;;
2650;SDS011;1335;48.180;16.342;2022-08-19T01:58:28;10.70;;;3.57;;
2650;SDS011;1335;48.180;16.342;2022-08-19T02:00:58;7.20;;;3.13;;
2650;SDS011;1335;48.180;16.342;2022-08-19T02:03:25;6.23;;;2.90;;
2650;SDS011;1335;48.180;16.342;2022-08-19T02:05:54;7.20;;;3.33;;
2650;SDS011;1335;48.180;16.342;2022-08-19T02:08:22;5.83;;;2.73;;
2650;SDS011;1335;48.180;16.342;2022-08-19T02:10:50;5.93;;;3.50;;
2650;SDS011;1335;48.180;16.342;2022-08-19T02:13:17;9.00;;;3.80;;
2650;SDS011;1335;48.180;16.342;2022-08-19T02:15:46;6.07;;;3.13;;
2650;SDS011;1335;48.180;16.342;2022-08-19T02:18:13;3.97;;;2.80;;
2650;SDS011;1335;48.180;16.342;2022-08-19T02:20:41;5.73;;;2.80;;
2650;SDS011;1335;48.180;16.342;2022-08-19T02:23:09;4.20;;;2.43;;
2650;SDS011;1335;48.180;16.342;2022-08-19T02:25:38;10.90;;;3.30;;
2650;SDS011;1335;48.180;16.342;2022-08-19T02:28:05;7.10;;;2.90;;
2650;SDS011;1335;48.180;16.342;2022-08-19T02:30:33;8.77;;;3.77;;
2650;SDS011;1335;48.180;16.342;2022-08-19T02:33:01;7.70;;;4.10;;
2650;SDS011;1335;48.180;16.342;2022-08-19T02:35:29;6.70;;;3.07;;
2650;SDS011;1335;48.180;16.342;2022-08-19T02:37:56;6.90;;;3.67;;
2650;SDS011;1335;48.180;16.342;2022-08-19T02:40:40;5.53;;;3.30;;
2650;SDS011;1335;48.180;16.342;2022-08-19T02:43:14;3.80;;;3.07;;
2650;SDS011;1335;48.180;16.342;2022-08-19T02:45:41;11.27;;;3.87;;
2650;SDS011;1335;48.180;16.342;2022-08-19T02:48:10;6.93;;;3.07;;
2650;SDS011;1335;48.180;16.342;2022-08-19T02:50:37;4.83;;;3.50;;
2650;SDS011;1335;48.180;16.342;2022-08-19T02:53:05;9.93;;;3.50;;
2650;SDS011;1335;48.180;16.342;2022-08-19T02:55:33;7.80;;;4.10;;
2650;SDS011;1335;48.180;16.342;2022-08-19T02:58:01;9.90;;;3.97;;
2650;SDS011;1335;48.180;16.342;2022-08-19T03:00:28;5.50;;;4.00;;
2650;SDS011;1335;48.180;16.342;2022-08-19T03:02:55;6.10;;;4.53;;
2650;SDS011;1335;48.180;16.342;2022-08-19T03:05:23;6.97;;;4.33;;
2650;SDS011;1335;48.180;16.342;2022-08-19T03:07:51;5.70;;;4.60;;
2650;SDS011;1335;48.180;16.342;2022-08-19T03:10:18;5.73;;;4.40;;
2650;SDS011;1335;48.180;16.342;2022-08-19T03:12:45;6.33;;;4.47;;
2650;SDS011;1335;48.180;16.342;2022-08-19T03:15:12;8.73;;;4.77;;
2650;SDS011;1335;48.180;16.342;2022-08-19T03:17:39;6.43;;;4.30;;
2650;SDS011;1335;48.180;16.342;2022-08-19T03:20:06;5.17;;;3.97;;
2650;SDS011;1335;48.180;16.342;2022-08-19T03:22:35;17.00;;;5.73;;
2650;SDS011;1335;48.180;16.342;2022-08-19T03:25:03;6.33;;;4.43;;
2650;SDS011;1335;48.180;16.342;2022-08-19T03:27:31;6.63;;;4.93;;
2650;SDS011;1335;48.180;16.342;2022-08-19T03:29:58;7.80;;;5.10;;
2650;SDS011;1335;48.180;16.342;2022-08-19T03:32:25;7.60;;;4.97;;
2650;SDS011;1335;48.180;16.342;2022-08-19T03:34:52;6.97;;;4.87;;
2650;SDS011;1335;48.180;16.342;2022-08-19T03:37:19;9.57;;;4.80;;
2650;SDS011;1335;48.180;16.342;2022-08-19T03:39:48;4.80;;;4.40;;
2650;SDS011;1335;48.180;16.342;2022-08-19T03:42:16;6.93;;;5.27;;
2650;SDS011;1335;48.180;16.342;2022-08-19T03:44:43;7.83;;;5.70;;
2650;SDS011;1335;48.180;16.342;2022-08-19T03:47:10;8.90;;;5.43;;
2650;SDS011;1335;48.180;16.342;2022-08-19T03:49:41;7.63;;;5.40;;
2650;SDS011;1335;48.180;16.342;2022-08-19T03:52:08;8.43;;;5.17;;
2650;SDS011;1335;48.180;16.342;2022-08-19T03:54:35;8.93;;;5.30;;
2650;SDS011;1335;48.180;16.342;2022-08-19T03:57:04;5.80;;;5.27;;
2650;SDS011;1335;48.180;16.342;2022-08-19T03:59:33;7.00;;;5.60;;
2650;SDS011;1335;48.180;16.342;2022-08-19T04:02:02;6.90;;;5.37;;
2650;SDS011;1335;48.180;16.342;2022-08-19T04:04:34;8.17;;;6.17;;
2650;SDS011;1335;48.180;16.342;2022-08-19T04:07:02;20.63;;;11.03;;
2650;SDS011;1335;48.180;16.342;2022-08-19T04:09:29;11.93;;;6.73;;
2650;SDS011;1335;48.180;16.342;2022-08-19T04:11:57;12.10;;;6.73;;
2650;SDS011;1335;48.180;16.342;2022-08-19T04:14:27;9.20;;;6.00;;
2650;SDS011;1335;48.180;16.342;2022-08-19T04:16:55;10.97;;;5.97;;
2650;SDS011;1335;48.180;16.342;2022-08-19T04:19:23;8.73;;;6.00;;
2650;SDS011;1335;48.180;16.342;2022-08-19T04:21:51;13.07;;;6.40;;
2650;SDS011;1335;48.180;16.342;2022-08-19T04:24:19;11.20;;;5.33;;
2650;SDS011;1335;48.180;16.342;2022-08-19T04:26:47;7.63;;;4.90;;
2650;SDS011;1335;48.180;16.342;2022-08-19T04:29:16;13.07;;;5.20;;
2650;SDS011;1335;48.180;16.342;2022-08-19T04:31:47;7.30;;;4.60;;
2650;SDS011;1335;48.180;16.342;2022-08-19T04:34:15;9.43;;;4.27;;
2650;SDS011;1335;48.180;16.342;2022-08-19T04:36:47;15.63;;;5.10;;
2650;SDS011;1335;48.180;16.342;2022-08-19T04:39:17;14.93;;;5.57;;
2650;SDS011;1335;48.180;16.342;2022-08-19T04:41:46;13.53;;;9.50;;
2650;SDS011;1335;48.180;16.342;2022-08-19T04:44:31;9.03;;;4.87;;
2650;SDS011;1335;48.180;16.342;2022-08-19T04:47:00;9.40;;;4.53;;
2650;SDS011;1335;48.180;16.342;2022-08-19T04:49:30;8.90;;;4.97;;
2650;SDS011;1335;48.180;16.342;2022-08-19T04:51:58;6.10;;;4.30;;
2650;SDS011;1335;48.180;16.342;2022-08-19T04:54:25;9.40;;;5.27;;
2650;SDS011;1335;48.180;16.342;2022-08-19T04:56:52;8.07;;;4.13;;
2650;SDS011;1335;48.180;16.342;2022-08-19T04:59:20;8.33;;;4.87;;
2650;SDS011;1335;48.180;16.342;2022-08-19T05:01:47;6.47;;;4.23;;
2650;SDS011;1335;48.180;16.342;2022-08-19T05:04:17;7.17;;;3.93;;
2650;SDS011;1335;48.180;16.342;2022-08-19T05:06:45;8.30;;;4.50;;
2650;SDS011;1335;48.180;16.342;2022-08-19T05:09:13;12.73;;;5.50;;
2650;SDS011;1335;48.180;16.342;2022-08-19T05:11:42;10.90;;;4.67;;
2650;SDS011;1335;48.180;16.342;2022-08-19T05:14:10;8.67;;;4.60;;
2650;SDS011;1335;48.180;16.342;2022-08-19T05:16:38;6.10;;;4.43;;
2650;SDS011;1335;48.180;16.342;2022-08-19T05:19:06;9.10;;;5.13;;
2650;SDS011;1335;48.180;16.342;2022-08-19T05:21:52;10.03;;;5.87;;
2650;SDS011;1335;48.180;16.342;2022-08-19T05:24:37;6.80;;;6.10;;
2650;SDS011;1335;48.180;16.342;2022-08-19T05:27:04;7.00;;;6.30;;
2650;SDS011;1335;48.180;16.342;2022-08-19T05:29:33;11.47;;;8.17;;
2650;SDS011;1335;48.180;16.342;2022-08-19T05:32:00;9.13;;;7.27;;
2650;SDS011;1335;48.180;16.342;2022-08-19T05:34:30;7.70;;;6.70;;
2650;SDS011;1335;48.180;16.342;2022-08-19T05:36:59;7.57;;;7.00;;
2650;SDS011;1335;48.180;16.342;2022-08-19T05:39:31;15.30;;;8.50;;
2650;SDS011;1335;48.180;16.342;2022-08-19T05:42:00;8.00;;;7.20;;
2650;SDS011;1335;48.180;16.342;2022-08-19T05:44:29;9.10;;;7.60;;
2650;SDS011;1335;48.180;16.342;2022-08-19T05:46:58;9.60;;;8.60;;
2650;SDS011;1335;48.180;16.342;2022-08-19T05:49:27;10.17;;;8.80;;
2650;SDS011;1335;48.180;16.342;2022-08-19T05:51:55;11.80;;;8.53;;
2650;SDS011;1335;48.180;16.342;2022-08-19T05:54:24;11.67;;;8.13;;
2650;SDS011;1335;48.180;16.342;2022-08-19T05:56:52;11.80;;;8.67;;
2650;SDS011;1335;48.180;16.342;2022-08-19T05:59:19;8.97;;;8.17;;
2650;SDS011;1335;48.180;16.342;2022-08-19T06:01:48;10.20;;;9.13;;
2650;SDS011;1335;48.180;16.342;2022-08-19T06:04:16;15.93;;;9.23;;
2650;SDS011;1335;48.180;16.342;2022-08-19T06:06:45;11.50;;;9.17;;
2650;SDS011;1335;48.180;16.342;2022-08-19T06:09:13;10.20;;;8.60;;
2650;SDS011;1335;48.180;16.342;2022-08-19T06:11:42;8.87;;;8.10;;
2650;SDS011;1335;48.180;16.342;2022-08-19T06:14:12;10.37;;;9.40;;
2650;SDS011;1335;48.180;16.342;2022-08-19T06:16:41;11.03;;;8.83;;
2650;SDS011;1335;48.180;16.342;2022-08-19T06:19:10;10.17;;;8.90;;
2650;SDS011;1335;48.180;16.342;2022-08-19T06:21:40;11.37;;;8.97;;
2650;SDS011;1335;48.180;16.342;2022-08-19T06:24:09;10.47;;;9.27;;
2650;SDS011;1335;48.180;16.342;2022-08-19T06:26:39;9.33;;;8.33;;
2650;SDS011;1335;48.180;16.342;2022-08-19T06:29:09;9.57;;;8.77;;
2650;SDS011;1335;48.180;16.342;2022-08-19T06:31:40;8.40;;;7.10;;
2650;SDS011;1335;48.180;16.342;2022-08-19T06:34:09;10.97;;;8.33;;
2650;SDS011;1335;48.180;16.342;2022-08-19T06:36:38;8.47;;;7.60;;
2650;SDS011;1335;48.180;16.342;2022-08-19T06:39:08;10.77;;;8.20;;
2650;SDS011;1335;48.180;16.342;2022-08-19T06:41:37;11.10;;;7.20;;
2650;SDS011;1335;48.180;16.342;2022-08-19T06:44:07;7.87;;;7.10;;
2650;SDS011;1335;48.180;16.342;2022-08-19T06:46:35;10.43;;;7.33;;
2650;SDS011;1335;48.180;16.342;2022-08-19T06:49:02;7.90;;;7.10;;
2650;SDS011;1335;48.180;16.342;2022-08-19T06:51:30;6.97;;;6.37;;
2650;SDS011;1335;48.180;16.342;2022-08-19T06:53:59;7.37;;;6.50;;
2650;SDS011;1335;48.180;16.342;2022-08-19T06:56:27;6.10;;;5.60;;
2650;SDS011;1335;48.180;16.342;2022-08-19T06:58:58;5.93;;;5.43;;
2650;SDS011;1335;48.180;16.342;2022-08-19T07:01:27;8.30;;;7.20;;
2650;SDS011;1335;48.180;16.342;2022-08-19T07:03:54;12.50;;;7.57;;
2650;SDS011;1335;48.180;16.342;2022-08-19T07:06:22;7.87;;;7.00;;
2650;SDS011;1335;48.180;16.342;2022-08-19T07:08:49;7.30;;;6.60;;
2650;SDS011;1335;48.180;16.342;2022-08-19T07:11:17;8.50;;;6.43;;
2650;SDS011;1335;48.180;16.342;2022-08-19T07:13:45;6.53;;;5.93;;
2650;SDS011;1335;48.180;16.342;2022-08-19T07:16:14;7.43;;;6.73;;
2650;SDS011;1335;48.180;16.342;2022-08-19T07:18:45;8.43;;;6.80;;
2650;SDS011;1335;48.180;16.342;2022-08-19T07:21:14;7.63;;;6.13;;
2650;SDS011;1335;48.180;16.342;2022-08-19T07:23:42;7.53;;;5.70;;
2650;SDS011;1335;48.180;16.342;2022-08-19T07:26:11;9.30;;;6.83;;
2650;SDS011;1335;48.180;16.342;2022-08-19T07:28:40;7.90;;;6.23;;
2650;SDS011;1335;48.180;16.342;2022-08-19T07:31:10;15.97;;;7.07;;
2650;SDS011;1335;48.180;16.342;2022-08-19T07:33:38;7.20;;;5.90;;
2650;SDS011;1335;48.180;16.342;2022-08-19T07:36:07;8.13;;;6.67;;
2650;SDS011;1335;48.180;16.342;2022-08-19T07:38:37;9.10;;;6.40;;
2650;SDS011;1335;48.180;16.342;2022-08-19T07:41:07;7.80;;;6.77;;
2650;SDS011;1335;48.180;16.342;2022-08-19T07:43:36;6.70;;;6.20;;
2650;SDS011;1335;48.180;16.342;2022-08-19T07:46:03;7.80;;;5.40;;
2650;SDS011;1335;48.180;16.342;2022-08-19T07:48:30;8.97;;;6.90;;
2650;SDS011;1335;48.180;16.342;2022-08-19T07:50:58;6.30;;;5.63;;
2650;SDS011;1335;48.180;16.342;2022-08-19T07:53:29;12.80;;;5.87;;
2650;SDS011;1335;48.180;16.342;2022-08-19T07:55:58;10.53;;;5.70;;
2650;SDS011;1335;48.180;16.342;2022-08-19T07:58:28;8.60;;;5.43;;
2650;SDS011;1335;48.180;16.342;2022-08-19T08:00:57;7.37;;;5.33;;
2650;SDS011;1335;48.180;16.342;2022-08-19T08:03:25;6.87;;;5.47;;
2650;SDS011;1335;48.180;16.342;2022-08-19T08:06:07;5.60;;;4.60;;
2650;SDS011;1335;48.180;16.342;2022-08-19T08:08:53;5.90;;;5.30;;
2650;SDS011;1335;48.180;16.342;2022-08-19T08:11:47;5.90;;;5.40;;
2650;SDS011;1335;48.180;16.342;2022-08-19T08:14:17;8.90;;;5.50;;
2650;SDS011;1335;48.180;16.342;2022-08-19T08:16:46;5.90;;;5.40;;
2650;SDS011;1335;48.180;16.342;2022-08-19T08:19:16;6.93;;;4.43;;
2650;SDS011;1335;48.180;16.342;2022-08-19T08:21:44;9.87;;;5.57;;
2650;SDS011;1335;48.180;16.342;2022-08-19T08:24:13;5.30;;;4.80;;
2650;SDS011;1335;48.180;16.342;2022-08-19T08:26:41;7.20;;;5.43;;
2650;SDS011;1335;48.180;16.342;2022-08-19T08:29:09;11.30;;;5.90;;
2650;SDS011;1335;48.180;16.342;2022-08-19T08:31:38;5.90;;;5.30;;
2650;SDS011;1335;48.180;16.342;2022-08-19T08:34:06;5.63;;;5.10;;
2650;SDS011;1335;48.180;16.342;2022-08-19T08:36:35;8.10;;;4.90;;
2650;SDS011;1335;48.180;16.342;2022-08-19T08:39:05;9.87;;;5.30;;
2650;SDS011;1335;48.180;16.342;2022-08-19T08:41:37;7.57;;;4.80;;
2650;SDS011;1335;48.180;16.342;2022-08-19T08:44:13;12.63;;;6.73;;
2650;SDS011;1335;48.180;16.342;2022-08-19T08:46:45;6.67;;;5.00;;
2650;SDS011;1335;48.180;16.342;2022-08-19T08:49:20;6.67;;;5.20;;
2650;SDS011;1335;48.180;16.342;2022-08-19T08:52:02;6.20;;;4.97;;
2650;SDS011;1335;48.180;16.342;2022-08-19T08:54:32;6.77;;;4.87;;
2650;SDS011;1335;48.180;16.342;2022-08-19T08:57:04;5.27;;;4.87;;
2650;SDS011;1335;48.180;16.342;2022-08-19T08:59:39;6.67;;;5.90;;
2650;SDS011;1335;48.180;16.342;2022-08-19T09:02:08;7.23;;;5.27;;
2650;SDS011;1335;48.180;16.342;2022-08-19T09:04:36;7.03;;;4.90;;
2650;SDS011;1335;48.180;16.342;2022-08-19T09:07:11;5.73;;;5.23;;
2650;SDS011;1335;48.180;16.342;2022-08-19T09:09:56;6.57;;;4.60;;
2650;SDS011;1335;48.180;16.342;2022-08-19T09:12:37;7.33;;;4.90;;
2650;SDS011;1335;48.180;16.342;2022-08-19T09:15:13;6.23;;;5.03;;
2650;SDS011;1335;48.180;16.342;2022-08-19T09:17:42;8.43;;;6.40;;
2650;SDS011;1335;48.180;16.342;2022-08-19T09:20:14;5.93;;;5.33;;
2650;SDS011;1335;48.180;16.342;2022-08-19T09:22:45;6.43;;;5.87;;
2650;SDS011;1335;48.180;16.342;2022-08-19T09:25:15;9.00;;;4.73;;
2650;SDS011;1335;48.180;16.342;2022-08-19T09:27:44;7.83;;;5.43;;
2650;SDS011;1335;48.180;16.342;2022-08-19T09:30:15;5.60;;;5.13;;
2650;SDS011;1335;48.180;16.342;2022-08-19T09:32:45;8.40;;;5.73;;
2650;SDS011;1335;48.180;16.342;2022-08-19T09:35:12;6.43;;;4.67;;
2650;SDS011;1335;48.180;16.342;2022-08-19T09:37:42;6.40;;;5.80;;
2650;SDS011;1335;48.180;16.342;2022-08-19T09:40:11;6.73;;;5.40;;
2650;SDS011;1335;48.180;16.342;2022-08-19T09:42:38;6.13;;;4.70;;
2650;SDS011;1335;48.180;16.342;2022-08-19T09:45:10;5.53;;;4.90;;
2650;SDS011;1335;48.180;16.342;2022-08-19T09:47:38;8.43;;;5.67;;
2650;SDS011;1335;48.180;16.342;2022-08-19T09:50:23;8.30;;;6.83;;
2650;SDS011;1335;48.180;16.342;2022-08-19T09:52:51;8.53;;;5.47;;
2650;SDS011;1335;48.180;16.342;2022-08-19T09:55:20;5.00;;;4.30;;
2650;SDS011;1335;48.180;16.342;2022-08-19T09:57:48;8.40;;;4.90;;
2650;SDS011;1335;48.180;16.342;2022-08-19T10:00:17;9.23;;;5.33;;
2650;SDS011;1335;48.180;16.342;2022-08-19T10:02:46;4.47;;;4.13;;
2650;SDS011;1335;48.180;16.342;2022-08-19T10:05:13;6.23;;;5.40;;
2650;SDS011;1335;48.180;16.342;2022-08-19T10:07:57;9.37;;;5.63;;
2650;SDS011;1335;48.180;16.342;2022-08-19T10:10:25;7.73;;;4.70;;
2650;SDS011;1335;48.180;16.342;2022-08-19T10:12:53;6.17;;;5.37;;
2650;SDS011;1335;48.180;16.342;2022-08-19T10:15:22;12.93;;;5.33;;
2650;SDS011;1335;48.180;16.342;2022-08-19T10:17:53;7.33;;;5.73;;
2650;SDS011;1335;48.180;16.342;2022-08-19T10:20:20;7.60;;;5.20;;
2650;SDS011;1335;48.180;16.342;2022-08-19T10:22:47;7.63;;;5.50;;
2650;SDS011;1335;48.180;16.342;2022-08-19T10:25:15;9.13;;;5.50;;
2650;SDS011;1335;48.180;16.342;2022-08-19T10:27:43;6.63;;;4.97;;
2650;SDS011;1335;48.180;16.342;2022-08-19T10:30:11;6.00;;;4.87;;
2650;SDS011;1335;48.180;16.342;2022-08-19T10:32:40;8.50;;;5.23;;
2650;SDS011;1335;48.180;16.342;2022-08-19T10:35:10;13.03;;;5.23;;
2650;SDS011;1335;48.180;16.342;2022-08-19T10:37:42;9.87;;;5.77;;
2650;SDS011;1335;48.180;16.342;2022-08-19T10:40:11;11.87;;;5.87;;
2650;SDS011;1335;48.180;16.342;2022-08-19T10:42:38;8.40;;;5.07;;
2650;SDS011;1335;48.180;16.342;2022-08-19T10:45:05;7.53;;;5.23;;
2650;SDS011;1335;48.180;16.342;2022-08-19T10:47:35;6.13;;;5.40;;
2650;SDS011;1335;48.180;16.342;2022-08-19T10:50:04;11.53;;;5.97;;
2650;SDS011;1335;48.180;16.342;2022-08-19T10:52:49;9.17;;;4.97;;
2650;SDS011;1335;48.180;16.342;2022-08-19T10:55:17;9.00;;;4.37;;
2650;SDS011;1335;48.180;16.342;2022-08-19T10:58:04;10.37;;;5.03;;
2650;SDS011;1335;48.180;16.342;2022-08-19T11:00:36;8.37;;;4.67;;
2650;SDS011;1335;48.180;16.342;2022-08-19T11:03:03;13.20;;;4.77;;
2650;SDS011;1335;48.180;16.342;2022-08-19T11:05:32;8.43;;;4.93;;
2650;SDS011;1335;48.180;16.342;2022-08-19T11:07:59;9.33;;;5.13;;
2650;SDS011;1335;48.180;16.342;2022-08-19T11:10:26;11.83;;;4.53;;
2650;SDS011;1335;48.180;16.342;2022-08-19T11:12:53;6.70;;;5.30;;
2650;SDS011;1335;48.180;16.342;2022-08-19T11:15:21;9.97;;;5.80;;
2650;SDS011;1335;48.180;16.342;2022-08-19T11:17:48;11.00;;;4.70;;
2650;SDS011;1335;48.180;16.342;2022-08-19T11:20:17;10.40;;;4.80;;
2650;SDS011;1335;48.180;16.342;2022-08-19T11:22:45;11.03;;;4.53;;
2650;SDS011;1335;48.180;16.342;2022-08-19T11:25:13;16.57;;;5.03;;
2650;SDS011;1335;48.180;16.342;2022-08-19T11:27:40;11.47;;;4.70;;
2650;SDS011;1335;48.180;16.342;2022-08-19T11:30:09;9.00;;;5.03;;
2650;SDS011;1335;48.180;16.342;2022-08-19T11:32:38;17.17;;;5.07;;
2650;SDS011;1335;48.180;16.342;2022-08-19T11:35:05;9.37;;;4.90;;
2650;SDS011;1335;48.180;16.342;2022-08-19T11:37:33;13.03;;;5.40;;
2650;SDS011;1335;48.180;16.342;2022-08-19T11:40:05;8.00;;;4.47;;
2650;SDS011;1335;48.180;16.342;2022-08-19T11:42:33;11.37;;;4.00;;
2650;SDS011;1335;48.180;16.342;2022-08-19T11:45:18;14.40;;;4.57;;
2650;SDS011;1335;48.180;16.342;2022-08-19T11:47:46;9.70;;;4.20;;
2650;SDS011;1335;48.180;16.342;2022-08-19T11:50:13;12.30;;;4.30;;
2650;SDS011;1335;48.180;16.342;2022-08-19T11:52:41;13.47;;;4.10;;
2650;SDS011;1335;48.180;16.342;2022-08-19T11:55:11;9.87;;;3.57;;
2650;SDS011;1335;48.180;16.342;2022-08-19T11:57:39;12.67;;;4.67;;
2650;SDS011;1335;48.180;16.342;2022-08-19T12:00:08;13.63;;;4.73;;
2650;SDS011;1335;48.180;16.342;2022-08-19T12:02:38;20.30;;;4.60;;
2650;SDS011;1335;48.180;16.342;2022-08-19T12:05:07;12.50;;;4.70;;
2650;SDS011;1335;48.180;16.342;2022-08-19T12:07:37;12.20;;;5.10;;
2650;SDS011;1335;48.180;16.342;2022-08-19T12:10:06;11.30;;;4.77;;
2650;SDS011;1335;48.180;16.342;2022-08-19T12:12:50;17.43;;;5.83;;
2650;SDS011;1335;48.180;16.342;2022-08-19T12:15:18;11.73;;;5.13;;
2650;SDS011;1335;48.180;16.342;2022-08-19T12:17:47;12.00;;;5.20;;
2650;SDS011;1335;48.180;16.342;2022-08-19T12:20:15;14.63;;;5.00;;
2650;SDS011;1335;48.180;16.342;2022-08-19T12:22:56;11.13;;;5.00;;
2650;SDS011;1335;48.180;16.342;2022-08-19T12:25:23;10.40;;;5.80;;
2650;SDS011;1335;48.180;16.342;2022-08-19T12:27:52;12.10;;;4.83;;
2650;SDS011;1335;48.180;16.342;2022-08-19T12:30:20;12.40;;;5.03;;
2650;SDS011;1335;48.180;16.342;2022-08-19T12:32:49;10.13;;;5.17;;
2650;SDS011;1335;48.180;16.342;2022-08-19T12:35:21;18.00;;;5.47;;
2650;SDS011;1335;48.180;16.342;2022-08-19T12:37:53;16.50;;;5.13;;
2650;SDS011;1335;48.180;16.342;2022-08-19T12:40:22;11.67;;;5.03;;
2650;SDS011;1335;48.180;16.342;2022-08-19T12:42:55;12.23;;;5.43;;
2650;SDS011;1335;48.180;16.342;2022-08-19T12:45:22;9.93;;;5.07;;
2650;SDS011;1335;48.180;16.342;2022-08-19T12:47:50;12.40;;;6.00;;
2650;SDS011;1335;48.180;16.342;2022-08-19T12:50:20;11.23;;;4.60;;
2650;SDS011;1335;48.180;16.342;2022-08-19T12:52:49;11.90;;;5.13;;
2650;SDS011;1335;48.180;16.342;2022-08-19T12:55:16;12.97;;;5.27;;
2650;SDS011;1335;48.180;16.342;2022-08-19T12:57:44;13.90;;;5.70;;
2650;SDS011;1335;48.180;16.342;2022-08-19T13:00:17;9.80;;;4.43;;
2650;SDS011;1335;48.180;16.342;2022-08-19T13:02:49;14.37;;;5.63;;
2650;SDS011;1335;48.180;16.342;2022-08-19T13:05:32;9.63;;;5.47;;
2650;SDS011;1335;48.180;16.342;2022-08-19T13:08:00;9.50;;;4.90;;
2650;SDS011;1335;48.180;16.342;2022-08-19T13:10:31;10.03;;;4.67;;
2650;SDS011;1335;48.180;16.342;2022-08-19T13:13:02;12.20;;;4.30;;
2650;SDS011;1335;48.180;16.342;2022-08-19T13:15:35;12.10;;;4.87;;
2650;SDS011;1335;48.180;16.342;2022-08-19T13:18:10;11.27;;;5.00;;
2650;SDS011;1335;48.180;16.342;2022-08-19T13:20:39;12.27;;;4.60;;
2650;SDS011;1335;48.180;16.342;2022-08-19T13:23:07;15.93;;;4.73;;
2650;SDS011;1335;48.180;16.342;2022-08-19T13:25:36;13.13;;;4.83;;
2650;SDS011;1335;48.180;16.342;2022-08-19T13:28:03;12.83;;;5.23;;
2650;SDS011;1335;48.180;16.342;2022-08-19T13:30:34;9.70;;;4.27;;
2650;SDS011;1335;48.180;16.342;2022-08-19T13:33:34;14.57;;;4.80;;
2650;SDS011;1335;48.180;16.342;2022-08-19T13:36:02;10.80;;;4.80;;
2650;SDS011;1335;48.180;16.342;2022-08-19T13:38:33;13.27;;;5.40;;
2650;SDS011;1335;48.180;16.342;2022-08-19T13:41:04;12.60;;;5.50;;
2650;SDS011;1335;48.180;16.342;2022-08-19T13:43:32;11.30;;;5.17;;
2650;SDS011;1335;48.180;16.342;2022-08-19T13:46:07;9.70;;;4.73;;
2650;SDS011;1335;48.180;16.342;2022-08-19T13:48:38;15.10;;;4.80;;
2650;SDS011;1335;48.180;16.342;2022-08-19T13:51:07;13.83;;;5.43;;
2650;SDS011;1335;48.180;16.342;2022-08-19T13:53:37;14.07;;;4.90;;
2650;SDS011;1335;48.180;16.342;2022-08-19T13:56:17;13.03;;;4.90;;
2650;SDS011;1335;48.180;16.342;2022-08-19T13:59:03;12.33;;;5.47;;
2650;SDS011;1335;48.180;16.342;2022-08-19T14:01:33;14.63;;;4.70;;
2650;SDS011;1335;48.180;16.342;2022-08-19T14:04:02;10.10;;;4.90;;
2650;SDS011;1335;48.180;16.342;2022-08-19T14:06:35;11.70;;;4.60;;
2650;SDS011;1335;48.180;16.342;2022-08-19T14:09:03;8.20;;;4.30;;
2650;SDS011;1335;48.180;16.342;2022-08-19T14:11:31;11.03;;;4.70;;
2650;SDS011;1335;48.180;16.342;2022-08-19T14:13:59;12.33;;;4.20;;
2650;SDS011;1335;48.180;16.342;2022-08-19T14:16:26;12.10;;;4.63;;
2650;SDS011;1335;48.180;16.342;2022-08-19T14:18:57;11.40;;;4.17;;
2650;SDS011;1335;48.180;16.342;2022-08-19T14:21:25;9.93;;;4.60;;
2650;SDS011;1335;48.180;16.342;2022-08-19T14:23:53;6.50;;;3.67;;
2650;SDS011;1335;48.180;16.342;2022-08-19T14:26:21;15.93;;;5.00;;
2650;SDS011;1335;48.180;16.342;2022-08-19T14:28:49;8.97;;;4.10;;
2650;SDS011;1335;48.180;16.342;2022-08-19T14:31:17;6.13;;;3.77;;
2650;SDS011;1335;48.180;16.342;2022-08-19T14:33:48;7.20;;;4.57;;
2650;SDS011;1335;48.180;16.342;2022-08-19T14:36:18;13.67;;;4.67;;
2650;SDS011;1335;48.180;16.342;2022-08-19T14:38:48;6.90;;;4.17;;
2650;SDS011;1335;48.180;16.342;2022-08-19T14:41:16;6.03;;;3.77;;
2650;SDS011;1335;48.180;16.342;2022-08-19T14:43:45;8.10;;;3.80;;
2650;SDS011;1335;48.180;16.342;2022-08-19T14:46:15;7.20;;;3.73;;
2650;SDS011;1335;48.180;16.342;2022-08-19T14:48:44;7.90;;;3.77;;
2650;SDS011;1335;48.180;16.342;2022-08-19T14:51:12;9.80;;;3.40;;
2650;SDS011;1335;48.180;16.342;2022-08-19T14:53:41;8.10;;;3.43;;
2650;SDS011;1335;48.180;16.342;2022-08-19T14:56:09;13.63;;;4.40;;
2650;SDS011;1335;48.180;16.342;2022-08-19T14:58:37;9.87;;;3.93;;
2650;SDS011;1335;48.180;16.342;2022-08-19T15:01:10;9.83;;;3.90;;
2650;SDS011;1335;48.180;16.342;2022-08-19T15:03:38;6.47;;;3.20;;
2650;SDS011;1335;48.180;16.342;2022-08-19T15:06:06;10.10;;;3.03;;
2650;SDS011;1335;48.180;16.342;2022-08-19T15:08:35;8.53;;;3.00;;
2650;SDS011;1335;48.180;16.342;2022-08-19T15:11:08;16.83;;;3.70;;
2650;SDS011;1335;48.180;16.342;2022-08-19T15:13:36;4.87;;;2.53;;